KFEW/FEW METAR and TAF weather

Enter ICAO airport designator
Station Type Date Time Source
KFEW METAR 2019/04/25 11:58 UTC NOAA

KFEW 251158Z AUTO 30010KT 10SM CLR 03/00 A3019 RMK AO2 SLPNO T00270003 10056 20024 53012 $


Station Type Date Time Source
KFEW Decoded METAR 2019/04/25 11:58 UTC NOAA

Station name not available
Apr 25, 2019 - 07:58 AM EDT / 2019.04.25 1158 UTC
Wind: from the WNW (300 degrees) at 12 MPH (10 KT):0
Visibility: 10 mile(s):0
Sky conditions: clear
Temperature: 36.9 F (2.7 C)
Dew Point: 32.5 F (0.3 C)
Relative Humidity: 84%
Pressure (altimeter): 30.19 in. Hg (1022 hPa)
Pressure tendency: 0.04 inches (1.2 hPa) higher than three hours ago
ob: KFEW 251158Z AUTO 30010KT 10SM CLR 03/00 A3019 RMK AO2 SLPNO T00270003 10056 20024 53012
cycle: 12

Station Type Date Time Source
KFEW TAF UTC NOAA

Error!

Example: see airport list